Time;durP1;ratioP1;P1;durP2;ratioP2;P2;SDS_P1;SDS_P2;PMS_P1;PMS_P2;Temp;Humidity;BMP_temperature;BMP_pressure;BME280_temperature;BME280_humidity;BME280_pressure;Samples;Min_cycle;Max_cycle;Signal;HPM_P1;HPM_P2
2021/04/07 00:01:07;;;;;;;9.85;2.00;;;;;;;4.07;63.77;101622.44;5035234;28;20033;-87
2021/04/07 00:03:34;;;;;;;14.00;2.20;;;;;;;3.99;64.32;101620.53;5035011;28;20041;-90
2021/04/07 00:06:00;;;;;;;9.07;1.58;;;;;;;3.87;64.94;101615.94;5030783;28;20439;-89
2021/04/07 00:08:27;;;;;;;13.13;2.35;;;;;;;3.87;64.88;101610.69;5035316;28;20079;-89
2021/04/07 00:10:55;;;;;;;7.68;1.73;;;;;;;3.95;64.48;101610.84;5034956;28;20025;-87
2021/04/07 00:13:22;;;;;;;13.57;2.10;;;;;;;3.97;63.89;101605.63;5034779;28;20025;-89
2021/04/07 00:15:49;;;;;;;11.40;2.05;;;;;;;4.05;63.42;101596.19;5027719;28;20034;-88
2021/04/07 00:18:15;;;;;;;11.40;1.58;;;;;;;4.06;63.82;101597.94;5034401;28;20018;-88
2021/04/07 00:20:42;;;;;;;16.67;2.42;;;;;;;4.07;63.65;101591.84;5034960;28;20083;-88
2021/04/07 00:23:09;;;;;;;8.05;1.45;;;;;;;4.07;63.52;101586.59;5033755;28;20033;-88
2021/04/07 00:25:36;;;;;;;16.23;1.83;;;;;;;4.01;63.47;101583.84;5034638;28;20037;-87
2021/04/07 00:28:18;;;;;;;12.77;2.85;;;;;;;4.02;63.95;101586.50;5029271;28;20033;-88
2021/04/07 00:30:53;;;;;;;7.07;2.03;;;;;;;4.06;63.87;101582.19;5028519;28;20116;-89
2021/04/07 00:33:28;;;;;;;16.00;3.00;;;;;;;4.02;63.82;101583.00;5031807;28;20405;-88
2021/04/07 00:35:54;;;;;;;13.93;3.33;;;;;;;3.86;64.40;101577.47;5034510;28;20061;-89
2021/04/07 00:38:21;;;;;;;18.30;2.90;;;;;;;3.86;64.74;101585.34;5034774;28;20490;-89
2021/04/07 00:40:48;;;;;;;14.20;2.35;;;;;;;3.89;64.59;101577.53;5034688;28;20033;-86
2021/04/07 00:43:15;;;;;;;16.20;2.30;;;;;;;3.83;64.74;101581.78;5034244;28;20384;-89
2021/04/07 00:45:42;;;;;;;44.95;4.95;;;;;;;4.02;64.58;101577.75;5025097;28;20495;-88
2021/04/07 00:48:10;;;;;;;16.20;2.00;;;;;;;4.14;63.92;101567.50;5034306;28;20022;-89
2021/04/07 00:50:36;;;;;;;18.95;2.92;;;;;;;4.11;63.80;101567.47;5034235;28;20021;-88
2021/04/07 00:53:03;;;;;;;18.50;3.05;;;;;;;4.26;63.54;101568.56;5023183;28;20034;-88
2021/04/07 00:55:33;;;;;;;13.70;1.75;;;;;;;4.37;62.55;101569.63;5018662;28;20017;-88
2021/04/07 00:58:00;;;;;;;14.38;2.28;;;;;;;4.32;62.52;101561.69;5034281;28;20029;-88
2021/04/07 01:00:27;;;;;;;13.20;2.63;;;;;;;4.45;62.32;101561.88;5034035;28;20404;-89
2021/04/07 01:02:59;;;;;;;12.07;2.40;;;;;;;4.48;61.71;101567.22;5034031;28;20037;-88
2021/04/07 01:05:29;;;;;;;13.07;2.47;;;;;;;4.35;62.25;101602.84;5033582;28;20033;-88
2021/04/07 01:07:57;;;;;;;17.88;2.75;;;;;;;4.29;63.15;101615.88;5034001;28;20079;-87
2021/04/07 01:10:23;;;;;;;7.35;1.52;;;;;;;4.11;64.56;101606.78;5033834;28;20022;-88
2021/04/07 01:12:51;;;;;;;15.55;2.17;;;;;;;3.88;66.16;101612.44;5026892;28;20026;-89
2021/04/07 01:15:18;;;;;;;7.10;1.77;;;;;;;3.74;67.41;101603.44;5028935;28;20025;-90
2021/04/07 01:17:46;;;;;;;8.35;1.50;;;;;;;3.64;67.81;101612.84;5025869;28;20021;-89
2021/04/07 01:20:16;;;;;;;14.15;1.88;;;;;;;3.86;67.35;101598.44;5033629;28;20052;-87
2021/04/07 01:22:48;;;;;;;14.25;1.77;;;;;;;3.81;67.14;101600.06;5034181;28;20026;-89
2021/04/07 01:25:15;;;;;;;13.85;1.92;;;;;;;4.02;66.35;101593.50;5033562;28;20361;-90
2021/04/07 01:27:42;;;;;;;8.73;2.05;;;;;;;4.09;66.07;101592.75;5030470;28;20017;-90
2021/04/07 01:30:11;;;;;;;9.02;1.42;;;;;;;3.93;66.80;101585.47;5033199;28;20538;-90
2021/04/07 01:32:39;;;;;;;11.57;0.95;;;;;;;3.94;66.14;101576.72;5033301;28;20041;-90
2021/04/07 01:35:07;;;;;;;5.82;1.10;;;;;;;3.98;66.33;101583.81;5033481;28;20033;-89
2021/04/07 01:37:35;;;;;;;10.60;2.05;;;;;;;3.94;66.26;101579.34;5033385;28;20487;-89
2021/04/07 01:40:06;;;;;;;14.43;1.88;;;;;;;3.92;66.21;101573.22;5020263;28;20025;-89
2021/04/07 01:42:34;;;;;;;8.48;1.50;;;;;;;3.82;66.65;101580.00;5033383;28;20014;-88
2021/04/07 01:45:03;;;;;;;12.38;2.38;;;;;;;3.94;66.33;101569.75;5033005;28;20025;-89
2021/04/07 01:47:30;;;;;;;14.25;2.05;;;;;;;4.04;66.48;101571.69;5032905;28;20108;-89
2021/04/07 01:49:59;;;;;;;18.83;1.85;;;;;;;4.05;66.33;101562.09;5031733;28;20503;-87
2021/04/07 01:52:26;;;;;;;11.73;2.05;;;;;;;4.08;66.04;101562.13;5032891;28;20030;-88
2021/04/07 01:54:54;;;;;;;6.07;1.23;;;;;;;4.18;65.54;101561.44;5032980;28;20029;-89
2021/04/07 01:57:21;;;;;;;10.50;1.77;;;;;;;4.18;65.68;101537.84;5033065;28;20433;-88
2021/04/07 01:59:47;;;;;;;11.73;2.50;;;;;;;4.19;65.67;101536.97;5032751;28;20031;-89
2021/04/07 02:02:14;;;;;;;8.52;1.80;;;;;;;4.23;65.93;101534.44;5032975;28;20499;-89
2021/04/07 02:04:41;;;;;;;6.57;1.45;;;;;;;4.21;66.27;101529.13;5028324;28;20034;-88
2021/04/07 02:07:11;;;;;;;11.73;2.17;;;;;;;4.27;65.63;101525.75;5031863;28;20029;-88
2021/04/07 02:09:37;;;;;;;17.70;2.15;;;;;;;4.32;65.69;101521.47;5032745;28;20030;-88
2021/04/07 02:12:04;;;;;;;16.85;2.65;;;;;;;4.24;65.93;101518.72;5032586;28;20048;-88
2021/04/07 02:14:32;;;;;;;6.20;1.75;;;;;;;4.36;65.83;101526.78;5032511;28;20060;-88
2021/04/07 02:17:01;;;;;;;12.88;2.03;;;;;;;4.41;65.39;101533.84;5029359;28;20028;-87
2021/04/07 02:19:29;;;;;;;9.38;2.03;;;;;;;4.37;65.55;101522.41;5033578;28;20029;-88
2021/04/07 02:22:17;;;;;;;17.83;2.08;;;;;;;4.46;65.83;101517.34;5033754;28;20124;-88
2021/04/07 02:24:46;;;;;;;17.25;2.70;;;;;;;4.37;65.47;101518.06;5025478;28;20038;-88
2021/04/07 02:30:04;;;;;;;14.40;2.42;;;;;;;4.25;65.23;101524.81;5066187;28;20459;-85
2021/04/07 02:32:30;;;;;;;15.70;2.80;;;;;;;4.28;64.53;101523.16;5040724;28;20065;-86
2021/04/07 02:34:57;;;;;;;14.25;2.70;;;;;;;4.38;62.62;101519.81;5034664;28;20042;-87
2021/04/07 02:37:24;;;;;;;18.15;4.63;;;;;;;4.58;62.26;101513.13;5031950;28;20064;-85
2021/04/07 02:39:50;;;;;;;16.15;2.47;;;;;;;4.82;61.18;101515.22;5029046;28;20030;-87
2021/04/07 02:42:19;;;;;;;17.30;3.20;;;;;;;5.09;59.87;101512.09;5029807;28;20034;-86
2021/04/07 02:44:46;;;;;;;23.65;3.38;;;;;;;4.85;60.02;101508.28;5037814;28;20134;-85
2021/04/07 02:47:12;;;;;;;23.38;4.00;;;;;;;4.68;61.22;101523.78;5035791;28;20034;-84
2021/04/07 02:49:39;;;;;;;15.18;3.05;;;;;;;4.52;63.94;101512.19;5030308;28;20495;-86
2021/04/07 02:52:05;;;;;;;16.27;2.80;;;;;;;4.74;63.85;101530.00;5035774;28;20032;-86
2021/04/07 02:54:33;;;;;;;21.42;2.47;;;;;;;4.63;65.00;101546.44;5045090;28;20040;-84
2021/04/07 02:57:00;;;;;;;11.35;2.45;;;;;;;4.61;64.96;101536.78;5036896;28;20034;-87
2021/04/07 02:59:26;;;;;;;16.05;2.63;;;;;;;4.54;65.46;101547.19;5036566;28;20046;-87
2021/04/07 03:01:53;;;;;;;17.10;1.73;;;;;;;4.42;65.70;101533.84;5032190;28;20038;-92
2021/04/07 03:04:19;;;;;;;8.93;1.95;;;;;;;4.33;65.68;101538.97;5039826;28;20032;-84
2021/04/07 03:06:45;;;;;;;16.02;2.33;;;;;;;4.31;66.92;101543.28;5038741;28;20029;-85
2021/04/07 03:09:12;;;;;;;17.88;3.00;;;;;;;4.36;66.95;101544.25;5036450;28;20125;-84
2021/04/07 03:11:38;;;;;;;19.45;2.22;;;;;;;4.15;67.39;101550.91;5035769;28;20032;-86
2021/04/07 03:14:05;;;;;;;24.73;2.85;;;;;;;3.92;68.80;101553.09;5029118;28;20476;-86
2021/04/07 03:16:34;;;;;;;10.00;1.98;;;;;;;3.82;69.23;101557.28;5039432;28;20099;-84
2021/04/07 03:19:01;;;;;;;10.85;2.60;;;;;;;3.98;68.76;101545.34;5038070;28;20028;-85
2021/04/07 03:21:27;;;;;;;16.73;2.58;;;;;;;4.02;68.62;101535.81;5037166;28;20040;-85
2021/04/07 03:23:54;;;;;;;20.58;3.00;;;;;;;3.94;68.77;101530.44;5032275;28;20029;-86
2021/04/07 03:26:21;;;;;;;10.98;2.03;;;;;;;4.04;68.99;101521.84;5038168;28;20025;-87
2021/04/07 03:28:47;;;;;;;22.15;3.92;;;;;;;3.91;69.29;101526.84;5044254;28;20038;-87
2021/04/07 03:31:14;;;;;;;25.20;3.67;;;;;;;4.03;68.94;101532.34;5037389;28;20062;-87
2021/04/07 03:33:40;;;;;;;14.93;3.80;;;;;;;3.95;69.19;101539.16;5038279;28;20029;-87
2021/04/07 03:36:07;;;;;;;16.42;2.80;;;;;;;3.77;70.33;101529.22;5027476;28;20029;-89
2021/04/07 03:38:34;;;;;;;5.95;1.95;;;;;;;3.49;71.08;101529.56;5039522;28;20033;-91
2021/04/07 03:41:01;;;;;;;6.70;1.55;;;;;;;3.71;70.53;101515.16;5018280;28;20022;-87
2021/04/07 03:43:28;;;;;;;18.15;2.00;;;;;;;3.88;69.94;101528.56;5024767;28;20108;-87
2021/04/07 03:45:56;;;;;;;14.38;2.67;;;;;;;3.81;70.15;101525.81;5021549;28;20044;-90
2021/04/07 03:48:27;;;;;;;8.85;1.70;;;;;;;3.80;69.85;101534.50;5015651;28;20030;-85
2021/04/07 03:50:54;;;;;;;8.65;1.83;;;;;;;3.88;69.54;101523.31;5028160;28;20088;-87
2021/04/07 03:53:21;;;;;;;18.98;2.55;;;;;;;3.73;69.77;101528.28;5026103;28;20049;-88
2021/04/07 03:55:50;;;;;;;16.85;1.67;;;;;;;3.53;71.05;101520.91;5026771;28;20017;-87
2021/04/07 03:58:16;;;;;;;10.35;2.55;;;;;;;3.59;70.46;101504.44;5018922;28;20116;-87
2021/04/07 04:00:43;;;;;;;17.02;2.47;;;;;;;3.71;70.36;101514.25;5016029;28;20192;-91
2021/04/07 04:03:10;;;;;;;5.97;1.60;;;;;;;3.58;70.82;101512.25;5025805;28;20041;-89
2021/04/07 04:05:37;;;;;;;12.30;2.65;;;;;;;3.81;70.01;101516.19;5027476;28;20444;-90
2021/04/07 04:08:04;;;;;;;12.32;2.15;;;;;;;3.79;69.97;101504.81;5023831;28;20061;-91
2021/04/07 04:10:31;;;;;;;12.82;2.38;;;;;;;3.85;69.51;101483.94;5016093;28;20030;-89
2021/04/07 04:12:58;;;;;;;10.25;2.45;;;;;;;3.78;70.00;101484.69;5014651;28;20022;-88
2021/04/07 04:15:24;;;;;;;13.82;2.40;;;;;;;3.72;69.70;101474.09;5024786;28;20033;-91
2021/04/07 04:17:52;;;;;;;16.20;2.22;;;;;;;3.70;70.27;101479.31;5027145;28;20056;-88
2021/04/07 04:20:19;;;;;;;20.70;2.95;;;;;;;3.79;70.09;101470.72;5019788;28;20018;-91
2021/04/07 04:22:46;;;;;;;13.23;2.55;;;;;;;3.52;70.88;101484.19;5016984;28;20116;-92
2021/04/07 04:25:16;;;;;;;13.93;3.00;;;;;;;3.81;70.43;101453.28;5027672;28;20018;-91
2021/04/07 04:27:43;;;;;;;9.30;2.70;;;;;;;3.70;70.92;101476.69;5018287;28;20033;-89
2021/04/07 04:30:12;;;;;;;17.85;2.85;;;;;;;3.86;70.55;101462.13;5024399;28;20034;-92
2021/04/07 04:32:38;;;;;;;10.98;2.70;;;;;;;3.88;70.25;101464.78;5016640;28;20018;-91
2021/04/07 04:35:15;;;;;;;10.20;3.35;;;;;;;3.74;70.43;101456.66;5015331;28;20034;-90
2021/04/07 04:37:41;;;;;;;8.88;2.53;;;;;;;3.53;71.69;101455.41;5017896;28;20057;-90
2021/04/07 04:40:10;;;;;;;11.48;2.80;;;;;;;3.48;72.26;101462.31;5027832;28;20052;-91
2021/04/07 04:42:36;;;;;;;24.10;3.63;;;;;;;3.60;72.01;101458.13;5013219;28;20428;-86
2021/04/07 04:45:04;;;;;;;24.45;5.38;;;;;;;3.69;71.67;101453.94;5016902;28;20044;-88
2021/04/07 04:47:30;;;;;;;26.75;3.97;;;;;;;3.63;71.97;101466.06;5015439;28;20133;-87
2021/04/07 04:49:57;;;;;;;25.98;5.03;;;;;;;3.86;71.33;101451.66;5020116;28;20033;-86
2021/04/07 04:52:23;;;;;;;18.63;4.07;;;;;;;3.68;71.15;101473.16;5028320;28;20179;-89
2021/04/07 04:54:49;;;;;;;27.45;4.78;;;;;;;3.58;71.53;101439.78;5023118;28;20022;-87
2021/04/07 04:57:16;;;;;;;19.95;4.38;;;;;;;3.62;70.90;101438.97;5019717;28;20385;-89
2021/04/07 04:59:43;;;;;;;33.08;5.07;;;;;;;3.69;69.70;101437.34;5017644;28;20037;-87
2021/04/07 05:02:10;;;;;;;24.27;5.00;;;;;;;3.60;71.17;101448.56;5021264;28;20033;-86
2021/04/07 05:04:37;;;;;;;28.00;5.00;;;;;;;3.84;70.52;101447.22;5028102;28;20112;-82
2021/04/07 05:07:03;;;;;;;31.85;5.43;;;;;;;3.86;70.21;101420.19;5021000;28;20030;-88
2021/04/07 05:09:29;;;;;;;29.98;6.50;;;;;;;3.94;71.35;101432.50;5020191;28;20481;-86
2021/04/07 05:11:56;;;;;;;30.17;5.50;;;;;;;3.85;72.94;101439.38;5019417;28;20034;-88
2021/04/07 05:14:22;;;;;;;34.08;5.43;;;;;;;4.08;73.48;101433.63;5022461;28;20028;-87
2021/04/07 05:16:48;;;;;;;34.03;6.18;;;;;;;4.59;72.45;101425.66;5022762;28;20034;-90
2021/04/07 05:19:15;;;;;;;36.60;5.72;;;;;;;4.83;71.14;101425.97;5029144;28;20388;-93
2021/04/07 05:21:42;;;;;;;44.72;6.72;;;;;;;4.78;73.79;101434.66;5021707;28;20119;-92
2021/04/07 05:24:16;;;;;;;39.60;6.07;;;;;;;5.05;72.41;101451.63;5024581;28;20030;-82
2021/04/07 05:26:44;;;;;;;38.60;5.47;;;;;;;4.96;73.38;101460.28;5039100;28;20029;-82
2021/04/07 05:29:55;;;;;;;35.67;5.13;;;;;;;5.56;71.56;101449.59;4996889;23;20134;-88
2021/04/07 05:32:50;;;;;;;34.05;5.70;;;;;;;5.62;70.81;101454.91;4991533;28;20053;-91
2021/04/07 05:38:48;;;;;;;37.65;6.03;;;;;;;5.67;70.49;101458.50;5023157;23;20793;-83
2021/04/07 05:41:27;;;;;;;55.60;8.05;;;;;;;5.83;70.89;101462.13;5038955;23;20036;-81
2021/04/07 05:44:13;;;;;;;55.53;8.40;;;;;;;5.70;71.07;101461.13;5017364;28;20030;-95
2021/04/07 05:46:42;;;;;;;72.97;9.10;;;;;;;6.02;70.36;101457.06;5016335;23;20050;-95
2021/04/07 05:49:08;;;;;;;46.92;6.88;;;;;;;6.19;69.26;101454.59;5002928;23;20034;-89
2021/04/07 05:51:35;;;;;;;64.88;7.53;;;;;;;6.15;69.71;101466.84;4991230;28;20132;-91
2021/04/07 05:54:01;;;;;;;51.78;8.23;;;;;;;6.08;70.21;101465.91;4988063;28;20069;-92
2021/04/07 05:56:28;;;;;;;50.53;8.68;;;;;;;6.20;69.40;101475.66;4979053;28;20029;-92
2021/04/07 05:58:54;;;;;;;59.90;8.68;;;;;;;6.28;68.86;101468.69;4978040;28;20019;-95
2021/04/07 06:01:20;;;;;;;50.42;7.40;;;;;;;6.31;69.56;101483.63;4968447;28;20046;-88
2021/04/07 06:03:47;;;;;;;58.85;8.50;;;;;;;6.24;69.68;101489.72;4967716;28;20038;-89
2021/04/07 06:06:13;;;;;;;68.18;9.65;;;;;;;6.41;69.31;101498.63;4962675;28;20031;-80
2021/04/07 06:08:52;;;;;;;60.00;9.00;;;;;;;6.36;70.10;101497.72;4975557;28;20014;-84
2021/04/07 06:12:19;;;;;;;54.15;9.38;;;;;;;6.59;69.31;101489.09;5446311;23;20049;-82
2021/04/07 06:15:35;;;;;;;52.95;9.23;;;;;;;6.64;68.09;101493.53;5017993;23;20055;-81
2021/04/07 06:18:28;;;;;;;52.58;8.07;;;;;;;6.79;68.42;101511.19;5035653;23;20042;-81
2021/04/07 06:20:58;;;;;;;61.80;7.45;;;;;;;6.91;68.34;101504.22;4996959;28;20034;-89
2021/04/07 06:23:31;;;;;;;49.80;6.90;;;;;;;7.02;67.29;101506.94;4990084;28;20488;-94
2021/04/07 06:25:57;;;;;;;52.80;8.05;;;;;;;6.87;67.51;101523.53;4991451;28;20498;-94
2021/04/07 06:28:23;;;;;;;48.78;7.43;;;;;;;6.62;68.48;101536.53;4989923;28;20027;-96
2021/04/07 06:30:49;;;;;;;58.47;8.00;;;;;;;6.73;68.30;101526.94;4992040;28;20109;-95
2021/04/07 06:33:26;;;;;;;52.08;7.15;;;;;;;6.85;68.10;101547.19;4992441;28;20102;-94
2021/04/07 06:35:55;;;;;;;35.90;7.32;;;;;;;6.86;67.76;101553.38;4995479;28;20038;-96
2021/04/07 06:38:35;;;;;;;37.55;6.32;;;;;;;6.84;68.35;101560.38;5005386;28;20011;-92
2021/04/07 06:41:36;;;;;;;49.33;7.68;;;;;;;7.02;67.61;101549.09;5003988;28;20042;-92
2021/04/07 06:44:02;;;;;;;35.05;6.10;;;;;;;6.74;68.12;101559.41;5012675;28;20544;-85
2021/04/07 06:46:33;;;;;;;45.47;6.28;;;;;;;6.80;68.30;101565.63;5009263;28;20045;-96
2021/04/07 06:49:02;;;;;;;49.95;8.50;;;;;;;6.99;67.84;101557.84;4990689;28;20053;-96
2021/04/07 06:51:31;;;;;;;39.08;6.63;;;;;;;7.06;67.52;101557.00;5002041;28;20519;-96
2021/04/07 06:54:05;;;;;;;47.10;6.38;;;;;;;7.00;67.87;101583.31;4999337;28;20039;-95
2021/04/07 06:56:32;;;;;;;49.58;7.35;;;;;;;7.07;67.69;101565.81;5009894;28;20094;-96
2021/04/07 06:59:02;;;;;;;39.22;7.90;;;;;;;6.94;67.99;101588.53;5002915;28;20028;-96
2021/04/07 07:02:17;;;;;;;44.58;5.78;;;;;;;7.17;67.85;101585.19;5020289;23;20049;-86
2021/04/07 07:04:45;;;;;;;41.70;6.63;;;;;;;6.93;67.85;101586.78;5007447;28;20042;-90
2021/04/07 07:07:50;;;;;;;38.30;6.75;;;;;;;7.18;67.60;101597.47;5138868;23;20027;-83
2021/04/07 07:10:19;;;;;;;49.92;9.73;;;;;;;7.02;68.66;101600.03;5002616;28;20073;-92
2021/04/07 07:12:47;;;;;;;37.83;6.32;;;;;;;7.24;68.27;101608.94;5008632;28;20018;-86
2021/04/07 07:15:27;;;;;;;37.05;5.97;;;;;;;7.25;68.48;101620.38;5001384;28;20016;-86
2021/04/07 07:17:53;;;;;;;32.85;6.03;;;;;;;7.04;68.92;101621.09;5003882;28;20023;-89
2021/04/07 07:20:36;;;;;;;41.80;7.10;;;;;;;7.31;67.68;101630.94;4992791;28;20098;-87
2021/04/07 07:23:03;;;;;;;41.00;5.78;;;;;;;7.45;67.49;101624.00;4993761;28;20108;-83
2021/04/07 07:25:31;;;;;;;37.42;6.43;;;;;;;7.23;67.74;101636.19;4999719;28;20027;-85
2021/04/07 07:28:03;;;;;;;36.95;6.05;;;;;;;7.19;68.31;101630.88;4997959;28;20046;-90
2021/04/07 07:30:45;;;;;;;;;;;;;;;7.78;67.11;101659.34;4996692;28;20113;-82
2021/04/07 07:33:17;;;;;;;45.33;7.68;;;;;;;7.61;67.76;101661.00;4996040;28;19902;-88
2021/04/07 07:35:45;;;;;;;30.02;5.03;;;;;;;7.48;68.01;101664.44;5011921;28;20058;-89
2021/04/07 07:38:11;;;;;;;33.90;5.13;;;;;;;7.39;68.31;101671.44;5000117;28;20057;-93
2021/04/07 07:40:38;;;;;;;36.45;6.10;;;;;;;7.39;68.16;101670.53;4981918;28;20031;-91
2021/04/07 07:43:06;;;;;;;34.88;4.88;;;;;;;7.53;68.08;101675.91;4989192;28;20031;-90
2021/04/07 07:45:39;;;;;;;37.65;4.95;;;;;;;7.64;66.99;101671.59;5000590;28;20019;-96
2021/04/07 07:48:17;;;;;;;35.08;5.53;;;;;;;7.59;66.12;101674.19;5002081;28;20031;-95
2021/04/07 07:50:46;;;;;;;34.92;6.20;;;;;;;7.36;66.42;101679.31;5010131;28;20123;-93
2021/04/07 07:53:15;;;;;;;26.73;5.45;;;;;;;7.55;66.59;101688.25;4990235;28;20019;-95
2021/04/07 07:55:42;;;;;;;41.75;5.35;;;;;;;7.56;66.43;101692.66;4997996;28;20026;-93
2021/04/07 07:58:08;;;;;;;41.55;7.07;;;;;;;7.54;66.98;101697.03;4998558;28;20035;-96
2021/04/07 08:00:46;;;;;;;36.28;5.78;;;;;;;7.68;65.60;101705.00;5008239;28;20030;-83
2021/04/07 08:04:00;;;;;;;38.25;5.90;;;;;;;7.91;64.93;101706.88;4984610;28;20057;-95
2021/04/07 08:06:48;;;;;;;42.80;6.43;;;;;;;7.65;65.09;101718.19;4986160;28;20059;-96
2021/04/07 08:09:14;;;;;;;32.05;6.55;;;;;;;7.73;65.39;101734.06;4979584;28;20039;-96
2021/04/07 08:11:45;;;;;;;33.08;5.35;;;;;;;8.09;65.18;101722.81;4977145;28;20034;-96
2021/04/07 08:14:14;;;;;;;37.28;5.50;;;;;;;8.08;66.05;101730.72;4979789;28;20034;-96
2021/04/07 08:16:43;;;;;;;23.42;4.07;;;;;;;7.85;64.57;101718.31;4993270;28;20026;-94
2021/04/07 08:19:12;;;;;;;29.45;5.55;;;;;;;7.87;64.67;101742.06;4992872;28;20054;-96
2021/04/07 08:21:41;;;;;;;30.38;5.60;;;;;;;8.00;63.83;101749.16;4986701;28;20043;-94
2021/04/07 08:24:17;;;;;;;43.85;11.20;;;;;;;8.01;64.40;101744.75;5004364;28;20037;-92
2021/04/07 08:26:45;;;;;;;45.10;9.13;;;;;;;8.01;64.03;101745.66;4979046;28;20062;-83
2021/04/07 08:29:11;;;;;;;35.35;6.22;;;;;;;8.07;63.47;101744.78;4975312;28;20386;-82
2021/04/07 08:31:39;;;;;;;52.15;6.15;;;;;;;8.14;63.66;101746.59;4976586;28;20063;-82
2021/04/07 08:34:10;;;;;;;35.65;4.45;;;;;;;8.13;61.98;101762.44;4972391;28;20028;-81
2021/04/07 08:36:40;;;;;;;32.58;4.50;;;;;;;8.10;63.16;101756.25;4972665;28;20022;-85
2021/04/07 08:39:11;;;;;;;25.58;4.60;;;;;;;8.26;61.31;101767.78;4974892;28;20120;-83
2021/04/07 08:41:38;;;;;;;29.83;5.57;;;;;;;8.45;61.12;101762.56;4974644;28;20019;-89
2021/04/07 08:44:05;;;;;;;40.13;4.57;;;;;;;8.60;61.54;101772.34;4969530;28;20038;-89
2021/04/07 08:49:41;;;;;;;31.88;5.30;;;;;;;9.13;59.82;101777.72;5073632;27;20405;-89
2021/04/07 08:52:24;;;;;;;19.33;4.10;;;;;;;8.96;59.18;101783.88;5066923;28;20025;-91
2021/04/07 08:54:53;;;;;;;27.95;4.95;;;;;;;8.82;58.64;101793.53;5047026;28;20059;-85
2021/04/07 08:57:36;;;;;;;31.67;6.28;;;;;;;8.80;57.75;101792.63;5049530;28;20233;-94
2021/04/07 09:02:57;;;;;;;34.42;5.20;;;;;;;8.98;58.88;101789.16;5097951;27;20393;-88
2021/04/07 09:05:31;;;;;;;20.92;3.85;;;;;;;8.66;57.37;101804.06;5082564;28;20071;-88
2021/04/07 09:07:59;;;;;;;23.00;4.40;;;;;;;8.83;57.36;101797.94;5079417;28;20028;-88
2021/04/07 09:10:26;;;;;;;27.13;4.85;;;;;;;8.86;57.68;101796.19;5089124;28;20142;-88
2021/04/07 09:12:54;;;;;;;30.40;5.70;;;;;;;9.01;56.83;101816.47;5084781;28;20025;-86
2021/04/07 09:17:59;;;;;;;21.73;4.97;;;;;;;9.07;55.88;101811.22;5070436;27;20398;-82
2021/04/07 09:20:47;;;;;;;30.70;5.93;;;;;;;9.26;54.95;101810.34;5063737;28;20028;-87
2021/04/07 09:25:58;;;;;;;26.13;4.95;;;;;;;9.36;55.12;101835.94;5061089;27;20417;-90
2021/04/07 09:28:35;;;;;;;22.75;4.97;;;;;;;9.10;54.28;101833.22;5049873;28;20026;-86
2021/04/07 09:31:07;;;;;;;30.13;5.00;;;;;;;9.41;54.46;101825.34;5034712;28;20048;-87
2021/04/07 09:33:39;;;;;;;20.58;4.30;;;;;;;9.42;54.32;101832.38;5041146;28;20124;-86
2021/04/07 09:36:06;;;;;;;25.10;3.83;;;;;;;9.02;53.20;101834.13;5048153;28;20396;-87
2021/04/07 09:38:35;;;;;;;21.90;4.38;;;;;;;9.09;53.68;101850.00;5041043;28;20039;-86
2021/04/07 09:41:05;;;;;;;18.27;4.10;;;;;;;9.54;53.23;101842.97;5037368;28;20053;-86
2021/04/07 09:43:32;;;;;;;29.85;4.45;;;;;;;9.12;52.04;101868.50;5045220;28;20116;-86
2021/04/07 09:45:58;;;;;;;51.95;23.00;;;;;;;9.16;51.59;101854.38;5045489;28;20364;-88
2021/04/07 09:48:46;;;;;;;22.25;3.85;;;;;;;9.27;51.79;101852.69;5047504;28;20025;-87
2021/04/07 09:51:17;;;;;;;22.50;3.92;;;;;;;9.32;51.26;101857.94;5036776;28;20148;-88
2021/04/07 09:53:44;;;;;;;27.30;3.65;;;;;;;9.22;51.97;101863.22;5034017;28;20038;-88
2021/04/07 09:56:10;;;;;;;22.85;4.40;;;;;;;9.56;51.79;101851.81;5033892;28;20033;-85
2021/04/07 09:58:45;;;;;;;24.05;3.97;;;;;;;9.54;51.49;101880.03;5031000;28;20080;-87
2021/04/07 10:01:14;;;;;;;20.10;3.78;;;;;;;9.68;51.90;101877.38;5042073;28;20025;-87
2021/04/07 10:03:50;;;;;;;20.38;3.60;;;;;;;9.63;51.51;101880.03;5038801;28;20113;-87
2021/04/07 10:06:22;;;;;;;22.88;3.28;;;;;;;9.63;51.23;101869.47;5046108;28;20061;-88
2021/04/07 10:11:46;;;;;;;10.05;1.52;;;;;;;9.04;47.24;101879.91;5015589;28;20133;-84
2021/04/07 10:14:12;;;;;;;8.90;2.38;;;;;;;9.54;47.70;101886.22;5017410;28;20041;-87
2021/04/07 10:16:40;;;;;;;14.85;2.00;;;;;;;9.29;47.04;101873.81;5025309;28;20057;-88
2021/04/07 10:19:11;;;;;;;16.35;2.72;;;;;;;9.67;46.47;101884.44;5012760;28;20049;-88
2021/04/07 10:21:44;;;;;;;13.63;2.88;;;;;;;9.67;45.67;101889.75;5013985;28;20392;-95
2021/04/07 10:24:15;;;;;;;18.23;2.17;;;;;;;9.63;45.97;101881.78;5008484;28;20050;-85
2021/04/07 10:26:44;;;;;;;7.93;2.17;;;;;;;9.49;47.18;101889.72;5012469;28;20033;-87
2021/04/07 10:29:22;;;;;;;21.40;2.95;;;;;;;8.84;50.66;101919.50;5008643;28;20113;-86
2021/04/07 10:31:53;;;;;;;29.05;4.75;;;;;;;9.49;50.83;101909.09;5016932;28;20103;-87
2021/04/07 10:34:32;;;;;;;17.75;3.47;;;;;;;9.19;51.36;101899.34;5013241;28;20041;-86
2021/04/07 10:37:00;;;;;;;25.48;3.67;;;;;;;9.22;51.89;101921.41;5021041;28;20030;-87
2021/04/07 10:39:35;;;;;;;12.65;3.03;;;;;;;9.45;52.13;101911.78;5020245;28;20035;-87
2021/04/07 10:42:03;;;;;;;18.45;3.38;;;;;;;9.44;51.83;101924.09;5017058;28;20048;-87
2021/04/07 10:44:32;;;;;;;16.20;3.38;;;;;;;9.25;53.35;101925.81;5023011;28;20042;-86
2021/04/07 10:46:59;;;;;;;12.30;2.42;;;;;;;9.25;52.70;101933.75;5016791;28;20097;-85
2021/04/07 10:49:26;;;;;;;21.33;2.97;;;;;;;8.60;55.12;101933.47;5017574;28;20041;-87
2021/04/07 10:52:02;;;;;;;14.82;2.70;;;;;;;9.12;54.52;101935.50;5013229;28;20086;-87
2021/04/07 10:54:29;;;;;;;19.02;2.70;;;;;;;8.80;56.71;101948.53;5014190;28;20124;-87
2021/04/07 10:59:39;;;;;;;77.97;37.42;;;;;;;8.42;58.04;101952.69;5080776;27;20406;-86
2021/04/07 11:02:20;;;;;;;11.77;2.20;;;;;;;8.08;58.04;101955.97;5064406;28;20033;-87
2021/04/07 11:04:46;;;;;;;13.45;2.75;;;;;;;8.33;58.18;101953.50;5037328;28;20033;-86
2021/04/07 11:07:16;;;;;;;8.32;1.88;;;;;;;8.47;57.14;101950.13;5042600;28;20026;-86
2021/04/07 11:09:50;;;;;;;13.07;3.10;;;;;;;8.54;56.28;101946.66;5039808;28;20434;-87
2021/04/07 11:12:21;;;;;;;8.98;2.63;;;;;;;8.77;55.63;101965.25;5040884;28;20111;-86
2021/04/07 11:14:54;;;;;;;16.10;2.20;;;;;;;9.03;54.69;101962.78;5037316;28;20032;-87
2021/04/07 11:17:20;;;;;;;12.98;2.65;;;;;;;8.82;55.29;101973.22;5041202;28;20052;-88
2021/04/07 11:19:47;;;;;;;13.27;2.50;;;;;;;9.15;53.86;101947.84;5044334;28;20212;-86
2021/04/07 11:22:14;;;;;;;16.15;2.20;;;;;;;9.09;54.07;101953.09;5037960;28;20120;-86
2021/04/07 11:24:40;;;;;;;13.55;2.53;;;;;;;9.27;52.97;101945.22;5033110;28;20045;-87
2021/04/07 11:27:09;;;;;;;17.02;4.60;;;;;;;9.49;51.85;101955.84;5036957;28;20084;-87
2021/04/07 11:29:37;;;;;;;17.35;3.08;;;;;;;9.79;52.04;101943.56;5043251;28;20039;-87
2021/04/07 11:32:06;;;;;;;16.13;3.45;;;;;;;9.94;51.26;101943.56;5046236;28;20083;-88
2021/04/07 11:34:42;;;;;;;17.48;2.90;;;;;;;9.68;50.93;101941.78;5045069;28;20487;-86
2021/04/07 11:37:25;;;;;;;13.13;2.75;;;;;;;9.52;49.95;101942.63;5029412;28;20034;-85
2021/04/07 11:39:56;;;;;;;14.75;4.07;;;;;;;9.33;50.09;101937.31;5039992;28;20124;-86
2021/04/07 11:42:29;;;;;;;17.05;2.75;;;;;;;9.25;50.45;101978.72;5045498;28;20041;-86
2021/04/07 11:44:56;;;;;;;;;;;;;;;8.65;55.60;102008.38;5047844;28;20029;-86
2021/04/07 11:47:22;;;;;;;13.27;2.05;;;;;;;7.52;60.18;102004.66;5047038;28;19960;-86
2021/04/07 11:49:49;;;;;;;15.32;2.08;;;;;;;7.24;61.53;102017.53;5035579;28;20492;-89
2021/04/07 11:52:15;;;;;;;32.20;5.40;;;;;;;6.94;63.25;102025.91;5036505;28;20048;-91
2021/04/07 11:54:41;;;;;;;14.05;3.20;;;;;;;6.57;64.88;102014.84;5041379;28;20120;-90
2021/04/07 11:57:08;;;;;;;21.10;3.70;;;;;;;6.44;65.38;102016.38;5039529;28;20032;-92
2021/04/07 11:59:34;;;;;;;15.00;2.38;;;;;;;6.75;64.67;102009.84;5035367;28;20037;-86
2021/04/07 12:02:01;;;;;;;12.40;2.40;;;;;;;6.93;64.27;102011.84;5043936;28;20036;-87
2021/04/07 12:04:29;;;;;;;16.58;2.58;;;;;;;7.24;63.79;102016.63;5041334;28;20040;-89